Time;durP1;ratioP1;P1;durP2;ratioP2;P2;SDS_P1;SDS_P2;PMS_P1;PMS_P2;Temp;Humidity;BMP_temperature;BMP_pressure;BME280_temperature;BME280_humidity;BME280_pressure;Samples;Min_cycle;Max_cycle;Signal;HPM_P1;HPM_P2
2021/05/19 00:00:19;;;;;;;15.97;13.97;;;8.40;88.10;;;;;;5055253;28;20531;-86
2021/05/19 00:02:45;;;;;;;15.20;13.53;;;8.40;87.90;;;;;;5037289;28;20183;-86
2021/05/19 00:05:11;;;;;;;17.43;14.17;;;8.30;87.80;;;;;;5037138;28;20248;-86
2021/05/19 00:07:37;;;;;;;17.30;15.50;;;8.30;87.80;;;;;;5054968;28;20170;-86
2021/05/19 00:10:04;;;;;;;17.67;15.87;;;8.20;88.20;;;;;;5037103;28;20180;-86
2021/05/19 00:12:30;;;;;;;19.17;17.17;;;8.20;88.50;;;;;;5055374;28;20180;-86
2021/05/19 00:14:56;;;;;;;23.67;16.67;;;7.90;88.90;;;;;;5036178;28;20207;-86
2021/05/19 00:17:21;;;;;;;18.83;16.53;;;7.80;89.50;;;;;;5036959;28;20210;-86
2021/05/19 00:19:47;;;;;;;16.77;15.03;;;7.80;89.70;;;;;;5037073;28;20547;-86
2021/05/19 00:22:13;;;;;;;17.70;15.90;;;7.80;89.60;;;;;;5054732;28;20195;-86
2021/05/19 00:24:38;;;;;;;17.17;15.20;;;7.80;89.40;;;;;;5036863;28;20196;-86
2021/05/19 00:27:04;;;;;;;17.50;14.97;;;7.70;89.50;;;;;;5036727;28;20290;-86
2021/05/19 00:29:30;;;;;;;17.47;13.90;;;7.70;89.40;;;;;;5054576;28;20701;-86
2021/05/19 00:31:56;;;;;;;16.07;14.47;;;7.70;89.30;;;;;;5054597;28;20546;-86
2021/05/19 00:34:21;;;;;;;19.67;16.27;;;7.60;89.10;;;;;;5036809;28;20694;-86
2021/05/19 00:36:47;;;;;;;21.47;16.47;;;7.50;89.50;;;;;;5036623;28;20180;-86
2021/05/19 00:39:12;;;;;;;24.40;17.33;;;7.50;90.00;;;;;;5054801;28;20549;-88
2021/05/19 00:41:41;;;;;;;17.53;15.70;;;7.50;90.10;;;;;;5036693;28;20183;-88
2021/05/19 00:44:09;;;;;;;19.73;16.03;;;7.60;90.10;;;;;;5054328;28;20192;-88
2021/05/19 00:46:36;;;;;;;23.27;18.10;;;7.50;90.00;;;;;;5036533;28;20199;-86
2021/05/19 00:49:02;;;;;;;21.90;19.40;;;7.50;90.20;;;;;;5054517;28;20172;-86
2021/05/19 00:51:28;;;;;;;22.70;17.30;;;7.60;90.50;;;;;;5054178;28;20203;-86
2021/05/19 00:53:56;;;;;;;20.00;17.87;;;7.60;90.70;;;;;;5054099;28;20220;-87
2021/05/19 00:56:24;;;;;;;22.33;17.90;;;7.60;90.60;;;;;;5036304;28;20192;-86
2021/05/19 00:58:54;;;;;;;22.87;18.50;;;7.70;90.60;;;;;;5054137;28;20173;-86
2021/05/19 01:01:19;;;;;;;22.00;19.67;;;7.70;90.70;;;;;;5054088;28;20160;-86
2021/05/19 01:03:45;;;;;;;24.77;18.10;;;7.70;90.70;;;;;;5036076;28;20218;-86
2021/05/19 01:06:17;;;;;;;21.87;19.50;;;7.70;90.80;;;;;;5053854;28;20199;-86
2021/05/19 01:11:26;;;;;;;24.07;18.57;;;7.70;91.00;;;;;;5054070;28;20167;-88
2021/05/19 01:13:52;;;;;;;28.47;20.47;;;7.80;91.10;;;;;;5035964;28;20203;-88
2021/05/19 01:16:18;;;;;;;24.57;21.77;;;7.70;91.60;;;;;;5036067;28;20593;-88
2021/05/19 01:18:44;;;;;;;26.17;21.33;;;7.70;91.90;;;;;;5035982;28;20263;-88
2021/05/19 01:21:11;;;;;;;26.60;22.40;;;7.80;92.10;;;;;;5053837;28;20230;-88
2021/05/19 01:23:39;;;;;;;31.03;23.47;;;7.80;92.30;;;;;;5053965;28;20179;-88
2021/05/19 01:26:07;;;;;;;27.67;23.37;;;7.80;92.40;;;;;;5034899;28;20574;-88
2021/05/19 01:28:33;;;;;;;31.33;23.97;;;7.90;92.50;;;;;;5035955;28;20271;-88
2021/05/19 01:30:58;;;;;;;24.17;21.37;;;7.90;92.50;;;;;;5036367;28;20203;-88
2021/05/19 01:33:24;;;;;;;24.10;21.60;;;8.00;92.50;;;;;;5053413;28;20176;-88
2021/05/19 01:35:49;;;;;;;28.40;21.53;;;8.00;92.50;;;;;;5053525;28;20176;-88
2021/05/19 01:38:15;;;;;;;29.00;21.37;;;8.00;92.50;;;;;;5035627;28;20179;-88
2021/05/19 01:40:41;;;;;;;29.27;21.33;;;8.00;92.50;;;;;;5035670;28;20226;-88
2021/05/19 01:43:07;;;;;;;26.60;21.67;;;8.00;92.50;;;;;;5053426;28;20178;-88
2021/05/19 01:45:33;;;;;;;21.73;19.27;;;8.00;92.50;;;;;;5035416;28;20238;-88
2021/05/19 01:47:59;;;;;;;20.77;17.87;;;7.90;92.40;;;;;;5035528;28;20550;-88
2021/05/19 01:50:27;;;;;;;21.70;18.97;;;7.90;92.30;;;;;;5035359;28;20182;-86
2021/05/19 01:52:56;;;;;;;18.73;16.77;;;7.80;92.10;;;;;;5035279;28;20176;-86
2021/05/19 01:55:23;;;;;;;20.27;18.17;;;7.80;92.00;;;;;;5035191;28;20206;-86
2021/05/19 01:57:49;;;;;;;23.10;18.83;;;7.70;91.80;;;;;;5035206;28;20191;-86
2021/05/19 02:00:17;;;;;;;20.20;18.10;;;7.70;91.70;;;;;;5053041;28;20179;-86
2021/05/19 02:02:43;;;;;;;22.20;17.37;;;7.70;91.60;;;;;;5035130;28;20183;-86
2021/05/19 02:05:13;;;;;;;21.10;17.37;;;7.60;91.40;;;;;;5052925;28;20199;-86
2021/05/19 02:07:39;;;;;;;18.97;16.97;;;7.60;91.40;;;;;;5053564;28;20164;-86
2021/05/19 02:10:07;;;;;;;19.33;17.23;;;7.70;91.30;;;;;;5035139;28;20172;-86
2021/05/19 02:12:32;;;;;;;17.23;15.50;;;7.60;91.30;;;;;;5035011;28;20179;-86
2021/05/19 02:14:58;;;;;;;16.60;14.90;;;7.60;91.20;;;;;;5034835;28;20212;-86
2021/05/19 02:17:27;;;;;;;16.27;14.10;;;7.60;91.10;;;;;;5053200;28;20254;-86
2021/05/19 02:19:53;;;;;;;18.57;14.40;;;7.60;91.00;;;;;;5035062;28;20187;-86
2021/05/19 02:22:18;;;;;;;17.97;16.03;;;7.60;90.90;;;;;;5052884;28;20549;-85
2021/05/19 02:24:44;;;;;;;21.70;16.90;;;7.50;90.70;;;;;;5052970;28;20203;-86
2021/05/19 02:27:10;;;;;;;20.47;18.10;;;7.30;90.80;;;;;;5053079;28;20203;-86
2021/05/19 02:29:36;;;;;;;21.03;17.77;;;7.30;91.00;;;;;;5034854;28;20176;-86
2021/05/19 02:32:01;;;;;;;18.57;16.67;;;7.20;91.20;;;;;;5052709;28;20670;-86
2021/05/19 02:34:27;;;;;;;16.97;15.03;;;7.20;91.20;;;;;;5052627;28;20188;-86
2021/05/19 02:36:53;;;;;;;16.57;14.83;;;7.10;91.10;;;;;;5053606;28;20190;-86
2021/05/19 02:39:19;;;;;;;17.20;13.93;;;7.00;91.10;;;;;;5038953;28;20640;-88
2021/05/19 02:41:45;;;;;;;15.73;14.00;;;7.10;91.10;;;;;;5057089;28;20215;-88
2021/05/19 02:44:10;;;;;;;16.97;14.13;;;7.00;90.90;;;;;;5038847;28;20199;-87
2021/05/19 02:46:37;;;;;;;15.93;14.23;;;7.00;90.80;;;;;;5056763;28;20204;-86
2021/05/19 02:49:04;;;;;;;16.27;14.67;;;7.00;90.80;;;;;;5056631;28;20165;-86
2021/05/19 02:51:35;;;;;;;14.83;13.33;;;7.00;90.80;;;;;;5038611;28;20183;-86
2021/05/19 02:54:01;;;;;;;16.30;13.80;;;7.10;90.60;;;;;;5038510;28;20199;-86
2021/05/19 02:56:27;;;;;;;16.40;14.70;;;7.10;90.40;;;;;;5056371;28;20222;-86
2021/05/19 02:58:53;;;;;;;20.67;16.87;;;7.10;90.30;;;;;;5056278;28;20656;-86
2021/05/19 03:01:19;;;;;;;19.43;16.53;;;7.00;90.50;;;;;;5038448;28;20180;-86
2021/05/19 03:03:45;;;;;;;18.83;16.57;;;7.00;90.80;;;;;;5056223;28;20778;-86
2021/05/19 03:06:11;;;;;;;21.77;18.10;;;7.00;90.80;;;;;;5038367;28;20204;-86
2021/05/19 03:08:37;;;;;;;20.23;17.83;;;6.90;90.70;;;;;;5038308;28;20554;-86
2021/05/19 03:11:04;;;;;;;21.53;18.17;;;6.90;90.80;;;;;;5056151;28;20648;-86
2021/05/19 03:13:30;;;;;;;20.23;17.00;;;7.00;90.90;;;;;;5038136;28;20274;-86
2021/05/19 03:15:56;;;;;;;27.20;19.83;;;6.80;91.00;;;;;;5055981;28;20750;-86
2021/05/19 03:18:22;;;;;;;25.87;20.87;;;6.80;91.20;;;;;;5038155;28;20270;-86
2021/05/19 03:20:48;;;;;;;31.13;20.73;;;6.80;91.50;;;;;;5055999;28;20258;-86
2021/05/19 03:23:14;;;;;;;24.57;21.10;;;6.80;91.90;;;;;;5038005;28;20187;-86
2021/05/19 03:25:39;;;;;;;22.70;19.60;;;6.80;92.00;;;;;;5038065;28;20219;-86
2021/05/19 03:28:05;;;;;;;25.90;21.00;;;6.70;92.00;;;;;;5037971;28;20176;-86
2021/05/19 03:30:31;;;;;;;26.67;21.73;;;6.70;92.00;;;;;;5038782;28;20176;-86
2021/05/19 03:32:57;;;;;;;25.93;21.17;;;6.70;92.10;;;;;;5055763;28;20171;-86
2021/05/19 03:35:23;;;;;;;23.37;19.97;;;6.70;92.20;;;;;;5055543;28;20237;-86
2021/05/19 03:37:48;;;;;;;19.53;17.10;;;6.70;92.10;;;;;;5055685;28;20607;-86
2021/05/19 03:40:15;;;;;;;19.13;16.57;;;6.80;92.00;;;;;;5037701;28;20202;-86
2021/05/19 03:42:41;;;;;;;17.67;15.83;;;6.80;91.90;;;;;;5037740;28;20643;-86
2021/05/19 03:45:09;;;;;;;19.53;15.50;;;6.90;91.80;;;;;;5037584;28;20253;-87
2021/05/19 03:47:35;;;;;;;22.10;16.10;;;7.00;91.60;;;;;;5055433;28;20608;-86
2021/05/19 03:50:02;;;;;;;17.07;15.30;;;7.30;91.30;;;;;;5036636;28;20180;-86
2021/05/19 03:52:30;;;;;;;16.13;14.43;;;7.50;90.60;;;;;;5037550;28;20172;-86
2021/05/19 03:54:56;;;;;;;17.80;14.37;;;7.80;89.90;;;;;;5055407;28;20573;-86
2021/05/19 03:57:22;;;;;;;15.53;13.93;;;7.90;89.20;;;;;;5037489;28;20179;-86
2021/05/19 03:59:47;;;;;;;17.43;14.03;;;8.00;88.60;;;;;;5037510;28;20191;-86
2021/05/19 04:02:13;;;;;;;17.47;15.60;;;8.00;88.40;;;;;;5055438;28;20631;-86
2021/05/19 04:04:38;;;;;;;16.87;15.17;;;8.00;88.20;;;;;;5037250;28;20195;-86
2021/05/19 04:07:04;;;;;;;16.70;15.00;;;8.10;88.10;;;;;;5055076;28;20200;-86
2021/05/19 04:09:30;;;;;;;17.37;15.57;;;8.20;88.00;;;;;;5037401;28;20575;-86
2021/05/19 04:11:55;;;;;;;17.50;15.70;;;8.30;87.80;;;;;;5037153;28;20538;-86
2021/05/19 04:14:21;;;;;;;17.50;15.60;;;8.40;87.60;;;;;;5055024;28;20200;-86
2021/05/19 04:16:47;;;;;;;17.47;15.77;;;8.30;87.50;;;;;;5054965;28;20607;-86
2021/05/19 04:19:12;;;;;;;16.47;14.87;;;8.40;87.60;;;;;;5037101;28;20229;-87
2021/05/19 04:21:38;;;;;;;18.50;16.60;;;8.40;87.40;;;;;;5054772;28;20176;-86
2021/05/19 04:24:04;;;;;;;18.63;16.67;;;8.00;87.80;;;;;;5036907;28;20614;-86
2021/05/19 04:26:29;;;;;;;19.67;17.77;;;8.00;88.40;;;;;;5036745;28;20581;-87
2021/05/19 04:28:55;;;;;;;19.77;16.60;;;8.00;88.70;;;;;;5036904;28;20179;-86
2021/05/19 04:31:21;;;;;;;19.73;17.77;;;8.20;88.80;;;;;;5055200;28;20636;-86
2021/05/19 04:33:46;;;;;;;20.50;18.07;;;8.30;88.70;;;;;;5036714;28;20571;-86
2021/05/19 04:36:12;;;;;;;19.93;17.27;;;8.40;88.70;;;;;;5036708;28;20214;-86
2021/05/19 04:38:38;;;;;;;20.90;18.80;;;8.40;88.90;;;;;;5036713;28;20172;-86
2021/05/19 04:41:04;;;;;;;26.03;21.27;;;8.30;89.10;;;;;;5036669;28;20213;-85
2021/05/19 04:43:31;;;;;;;25.53;22.40;;;8.00;90.50;;;;;;5054328;28;20172;-86
2021/05/19 04:45:56;;;;;;;30.17;24.80;;;7.90;91.40;;;;;;5036400;28;20207;-86
2021/05/19 04:48:22;;;;;;;31.17;25.27;;;7.90;91.80;;;;;;5036521;28;20176;-86
2021/05/19 04:50:48;;;;;;;35.40;26.93;;;7.90;92.10;;;;;;5036414;28;20176;-86
2021/05/19 04:53:14;;;;;;;34.03;27.53;;;8.00;92.40;;;;;;5036439;28;20204;-86
2021/05/19 04:55:40;;;;;;;38.60;29.07;;;8.00;92.50;;;;;;5036341;28;20203;-86
2021/05/19 04:58:06;;;;;;;43.43;30.07;;;8.10;92.50;;;;;;5036224;28;20176;-86
2021/05/19 05:00:33;;;;;;;37.87;29.17;;;8.10;92.60;;;;;;5053929;28;20733;-87
2021/05/19 05:02:59;;;;;;;38.90;29.67;;;8.20;92.70;;;;;;5036277;28;20176;-86
2021/05/19 05:05:25;;;;;;;47.40;30.13;;;8.20;92.80;;;;;;5036073;28;20195;-88
2021/05/19 05:07:51;;;;;;;40.00;29.23;;;8.30;92.90;;;;;;5053981;28;20164;-86
2021/05/19 05:10:16;;;;;;;36.47;28.57;;;8.40;93.00;;;;;;5053921;28;20172;-86
2021/05/19 05:12:43;;;;;;;40.17;29.83;;;8.30;93.00;;;;;;5036012;28;20190;-86
2021/05/19 05:15:15;;;;;;;43.40;30.93;;;8.40;92.90;;;;;;5035879;28;20211;-86
2021/05/19 05:17:41;;;;;;;40.87;31.33;;;8.50;92.90;;;;;;5054105;28;20160;-86
2021/05/19 05:20:10;;;;;;;43.40;31.60;;;8.50;92.90;;;;;;5036320;28;20268;-86
2021/05/19 05:22:37;;;;;;;39.60;30.33;;;8.60;92.90;;;;;;5053680;28;20180;-86
2021/05/19 05:25:04;;;;;;;37.53;30.80;;;8.70;92.90;;;;;;5053624;28;20211;-86
2021/05/19 05:27:29;;;;;;;42.23;31.30;;;8.70;92.90;;;;;;5053426;28;20203;-86
2021/05/19 05:29:55;;;;;;;40.80;30.57;;;8.80;92.80;;;;;;5035821;28;20666;-87
2021/05/19 05:32:21;;;;;;;34.63;28.30;;;8.80;92.70;;;;;;5053520;28;20254;-87
2021/05/19 05:34:46;;;;;;;41.00;31.40;;;8.80;92.60;;;;;;5035540;28;20291;-86
2021/05/19 05:37:12;;;;;;;44.33;33.43;;;8.80;92.40;;;;;;5035582;28;20549;-86
2021/05/19 05:39:38;;;;;;;45.03;34.83;;;8.80;92.40;;;;;;5035641;28;20200;-86
2021/05/19 05:42:04;;;;;;;40.13;33.30;;;9.00;92.60;;;;;;5035839;28;20176;-85
2021/05/19 05:44:29;;;;;;;41.50;33.07;;;9.00;92.50;;;;;;5035307;28;20195;-85
2021/05/19 05:46:55;;;;;;;41.87;33.90;;;9.00;92.20;;;;;;5053107;28;20560;-85
2021/05/19 05:49:20;;;;;;;43.97;31.90;;;9.00;92.20;;;;;;5035487;28;20306;-86
2021/05/19 05:51:46;;;;;;;41.30;32.20;;;9.10;92.20;;;;;;5035388;28;20547;-86
2021/05/19 05:54:12;;;;;;;39.77;31.27;;;9.10;92.00;;;;;;5035316;28;20203;-86
2021/05/19 05:56:40;;;;;;;37.67;31.33;;;9.20;92.00;;;;;;5053090;28;20615;-86
2021/05/19 05:59:07;;;;;;;40.13;31.83;;;9.20;91.70;;;;;;5053189;28;20715;-85
2021/05/19 06:01:33;;;;;;;39.03;32.83;;;9.20;91.80;;;;;;5053380;28;20164;-85
2021/05/19 06:03:59;;;;;;;39.43;33.13;;;9.20;91.80;;;;;;5035156;28;20218;-85
2021/05/19 06:06:24;;;;;;;39.03;32.60;;;9.40;92.20;;;;;;5035097;28;20200;-85
2021/05/19 06:08:50;;;;;;;42.63;34.37;;;9.40;91.90;;;;;;5053029;28;20256;-85
2021/05/19 06:11:16;;;;;;;47.30;35.27;;;9.40;92.00;;;;;;5052561;28;20259;-85
2021/05/19 06:13:41;;;;;;;41.40;34.13;;;9.50;92.30;;;;;;5034877;28;20702;-87
2021/05/19 06:16:07;;;;;;;41.27;32.93;;;9.70;92.40;;;;;;5053040;28;20238;-87
2021/05/19 06:18:32;;;;;;;40.10;33.63;;;9.80;92.00;;;;;;5052886;28;20203;-85
2021/05/19 06:20:58;;;;;;;35.73;30.47;;;9.80;92.00;;;;;;5034896;28;20179;-86
2021/05/19 06:23:24;;;;;;;37.57;31.87;;;9.90;91.60;;;;;;5035018;28;20176;-85
2021/05/19 06:25:49;;;;;;;38.37;32.80;;;9.90;91.50;;;;;;5052721;28;20199;-85
2021/05/19 06:28:15;;;;;;;37.47;30.60;;;10.10;91.50;;;;;;5034950;28;20203;-86
2021/05/19 06:30:40;;;;;;;37.80;30.60;;;10.10;91.10;;;;;;5034946;28;20219;-85
2021/05/19 06:33:06;;;;;;;35.87;30.87;;;10.00;90.90;;;;;;5034957;28;20193;-86
2021/05/19 06:35:31;;;;;;;31.73;26.13;;;10.10;90.90;;;;;;5034974;28;20200;-86
2021/05/19 06:37:57;;;;;;;38.20;31.90;;;10.20;90.50;;;;;;5034946;28;20646;-86
2021/05/19 06:40:23;;;;;;;36.60;30.50;;;10.40;90.70;;;;;;5034762;28;20176;-86
2021/05/19 06:42:49;;;;;;;34.30;30.60;;;10.60;90.80;;;;;;5052707;28;20211;-86
2021/05/19 06:45:16;;;;;;;34.10;29.43;;;10.60;90.40;;;;;;5052502;28;20645;-86
2021/05/19 06:47:42;;;;;;;31.67;28.13;;;10.80;90.60;;;;;;5034883;28;20644;-86
2021/05/19 06:50:08;;;;;;;31.03;27.20;;;10.70;89.40;;;;;;5052623;28;20180;-86
2021/05/19 06:52:34;;;;;;;27.40;24.03;;;10.80;89.40;;;;;;5034813;28;20184;-86
2021/05/19 06:55:05;;;;;;;28.40;25.23;;;10.70;88.80;;;;;;5034794;28;20204;-87
2021/05/19 06:57:32;;;;;;;27.87;24.97;;;10.80;89.00;;;;;;5034862;28;20175;-86
2021/05/19 06:59:57;;;;;;;30.17;24.47;;;10.70;88.20;;;;;;5034711;28;20199;-86
2021/05/19 07:02:23;;;;;;;26.97;23.30;;;10.70;88.40;;;;;;5034673;28;20636;-88
2021/05/19 07:04:48;;;;;;;25.57;22.23;;;10.70;87.70;;;;;;5052519;28;20677;-88
2021/05/19 07:07:14;;;;;;;24.23;21.63;;;10.80;88.30;;;;;;5052453;28;20202;-86
2021/05/19 07:09:40;;;;;;;21.90;19.03;;;10.70;87.30;;;;;;5034605;28;20547;-86
2021/05/19 07:12:05;;;;;;;22.93;20.47;;;10.70;87.90;;;;;;5034774;28;20214;-86
2021/05/19 07:14:35;;;;;;;25.60;22.43;;;10.70;87.30;;;;;;5052188;28;20211;-86
2021/05/19 07:17:00;;;;;;;26.20;23.37;;;10.90;87.70;;;;;;5052685;28;20172;-86
2021/05/19 07:19:26;;;;;;;21.50;18.87;;;11.10;88.30;;;;;;5034560;28;20176;-86
2021/05/19 07:21:51;;;;;;;17.10;15.27;;;11.10;86.80;;;;;;5052370;28;20253;-86
2021/05/19 07:24:17;;;;;;;14.40;12.33;;;11.20;87.20;;;;;;5053683;28;20191;-86
2021/05/19 07:26:46;;;;;;;16.90;14.07;;;11.30;85.40;;;;;;5038101;28;20278;-85
2021/05/19 07:29:12;;;;;;;13.43;11.60;;;11.20;84.80;;;;;;5037942;28;20639;-86
2021/05/19 07:31:40;;;;;;;13.77;12.23;;;11.20;84.00;;;;;;5055837;28;20168;-86
2021/05/19 07:34:06;;;;;;;15.50;13.53;;;11.10;84.70;;;;;;5037856;28;20188;-85
2021/05/19 07:36:32;;;;;;;17.70;14.03;;;11.20;85.20;;;;;;5055705;28;20627;-87
2021/05/19 07:38:58;;;;;;;21.43;15.43;;;11.30;84.70;;;;;;5055897;28;20176;-86
2021/05/19 07:41:25;;;;;;;15.93;14.20;;;11.40;85.00;;;;;;5055745;28;20251;-86
2021/05/19 07:43:50;;;;;;;15.67;13.90;;;11.40;84.50;;;;;;5037715;28;20200;-86
2021/05/19 07:46:17;;;;;;;18.47;16.10;;;11.40;84.10;;;;;;5055752;28;20203;-88
2021/05/19 07:48:43;;;;;;;15.83;14.10;;;11.70;85.10;;;;;;5037896;28;20172;-88
2021/05/19 07:51:09;;;;;;;16.90;13.77;;;11.70;82.70;;;;;;5037735;28;20253;-87
2021/05/19 07:53:34;;;;;;;19.60;15.00;;;11.60;83.00;;;;;;5055501;28;20176;-87
2021/05/19 07:56:09;;;;;;;16.33;14.60;;;11.70;82.60;;;;;;5055655;28;20176;-87
2021/05/19 08:03:30;;;;;;;11.60;10.30;;;11.80;82.40;;;;;;5055493;28;20182;-85
2021/05/19 08:05:55;;;;;;;13.97;10.57;;;11.80;80.40;;;;;;5037219;28;20195;-85
2021/05/19 08:08:21;;;;;;;13.03;10.63;;;12.00;81.20;;;;;;5055137;28;20558;-85
2021/05/19 08:10:46;;;;;;;11.83;10.60;;;11.90;78.40;;;;;;5055034;28;20635;-85
2021/05/19 08:13:12;;;;;;;13.30;11.90;;;11.80;77.50;;;;;;5054978;28;20202;-86
2021/05/19 08:15:38;;;;;;;14.43;12.37;;;12.20;80.40;;;;;;5037000;28;20216;-86
2021/05/19 08:18:11;;;;;;;16.40;13.20;;;12.20;78.90;;;;;;5055327;28;20184;-86
2021/05/19 08:20:38;;;;;;;12.30;10.97;;;12.40;80.40;;;;;;5037078;28;20213;-86
2021/05/19 08:23:04;;;;;;;13.70;12.27;;;12.40;77.50;;;;;;5054988;28;20643;-86
2021/05/19 08:25:30;;;;;;;11.67;10.47;;;12.40;78.30;;;;;;5054990;28;20203;-86
2021/05/19 08:27:56;;;;;;;11.53;10.10;;;12.40;77.50;;;;;;5036959;28;20172;-86
2021/05/19 08:30:22;;;;;;;11.23;9.83;;;12.60;78.20;;;;;;5036924;28;20279;-87
2021/05/19 08:32:48;;;;;;;11.70;10.37;;;12.60;76.80;;;;;;5055039;28;20251;-86
2021/05/19 08:35:14;;;;;;;11.33;10.13;;;12.40;76.30;;;;;;5036276;28;20207;-85
2021/05/19 08:37:39;;;;;;;21.60;15.90;;;12.30;76.00;;;;;;5036609;28;20180;-85
2021/05/19 08:40:06;;;;;;;11.67;10.40;;;12.50;76.70;;;;;;5054549;28;20172;-86
2021/05/19 08:42:36;;;;;;;11.77;9.40;;;12.80;78.20;;;;;;5054463;28;20201;-86
2021/05/19 08:45:04;;;;;;;12.60;11.30;;;13.10;77.20;;;;;;5036539;28;20211;-85
2021/05/19 08:47:30;;;;;;;11.50;8.10;;;12.90;76.70;;;;;;5054260;28;20192;-85
2021/05/19 08:49:56;;;;;;;9.90;7.20;;;13.00;75.90;;;;;;5036587;28;20179;-85
2021/05/19 08:52:22;;;;;;;10.07;7.20;;;13.30;76.30;;;;;;5054365;28;20652;-85
2021/05/19 08:54:54;;;;;;;8.47;6.87;;;13.20;74.10;;;;;;5054115;28;20191;-85
2021/05/19 08:57:20;;;;;;;9.03;7.27;;;13.20;70.00;;;;;;5054483;28;20562;-85
2021/05/19 08:59:45;;;;;;;9.37;7.10;;;13.50;74.20;;;;;;5036175;28;20214;-86
2021/05/19 09:02:14;;;;;;;9.17;7.00;;;13.70;71.50;;;;;;5036316;28;20562;-85
2021/05/19 09:04:40;;;;;;;8.33;6.70;;;14.00;73.70;;;;;;5054076;28;20188;-86
2021/05/19 09:07:07;;;;;;;7.70;7.00;;;14.00;71.70;;;;;;5053883;28;20730;-86
2021/05/19 09:09:35;;;;;;;7.73;6.63;;;13.80;71.80;;;;;;5054021;28;20164;-86
2021/05/19 09:12:08;;;;;;;7.73;6.90;;;13.40;70.40;;;;;;5053976;28;20172;-86
2021/05/19 09:15:02;;;;;;;8.80;7.77;;;14.10;74.70;;;;;;5035763;28;20234;-87
2021/05/19 09:17:33;;;;;;;9.63;7.23;;;14.10;72.50;;;;;;5036025;28;20662;-87
2021/05/19 09:20:02;;;;;;;9.37;7.50;;;14.30;72.90;;;;;;5053890;28;20689;-87
2021/05/19 09:22:35;;;;;;;8.40;7.47;;;14.20;70.20;;;;;;5053947;28;20172;-87
2021/05/19 09:25:21;;;;;;;8.03;7.23;;;14.10;71.60;;;;;;5035838;28;20203;-87
2021/05/19 09:27:50;;;;;;;7.40;6.60;;;14.30;70.30;;;;;;5035904;28;20172;-87
2021/05/19 09:30:33;;;;;;;7.63;6.70;;;14.20;69.10;;;;;;5035808;28;20196;-87
2021/05/19 09:33:21;;;;;;;7.83;6.63;;;14.20;69.50;;;;;;5035804;28;20670;-87
2021/05/19 09:36:07;;;;;;;10.00;5.87;;;14.30;70.30;;;;;;5060330;22;20231;-88
2021/05/19 09:38:33;;;;;;;7.17;5.70;;;14.70;70.30;;;;;;5035528;28;20175;-88
2021/05/19 09:41:20;;;;;;;7.63;5.43;;;14.90;68.20;;;;;;5036084;28;20176;-88
2021/05/19 09:43:47;;;;;;;6.47;5.67;;;14.50;70.60;;;;;;5054131;28;20201;-87
2021/05/19 09:46:56;;;;;;;7.70;5.83;;;14.80;68.90;;;;;;5035341;28;20211;-88
2021/05/19 09:49:19;;;;;;;8.43;5.67;;;14.90;67.80;;;;;;5042751;28;20175;-87
2021/05/19 09:51:50;;;;;;;6.47;5.50;;;14.80;69.50;;;;;;5053497;28;20156;-88
2021/05/19 09:54:27;;;;;;;4.57;3.80;;;15.20;68.70;;;;;;5053222;28;20159;-87
2021/05/19 09:56:54;;;;;;;8.07;5.20;;;14.80;63.80;;;;;;5053239;28;20195;-87
2021/05/19 09:59:23;;;;;;;5.87;4.70;;;14.70;63.90;;;;;;5053190;28;20644;-88
2021/05/19 10:01:53;;;;;;;7.13;5.33;;;14.50;63.20;;;;;;5035427;28;20557;-88
2021/05/19 10:04:26;;;;;;;5.63;4.50;;;14.80;67.80;;;;;;5035338;28;20178;-88
2021/05/19 10:06:53;;;;;;;7.20;4.23;;;14.90;61.90;;;;;;5035193;28;20235;-88
2021/05/19 10:09:19;;;;;;;7.80;4.27;;;15.30;67.20;;;;;;5053467;28;20179;-88
2021/05/19 10:11:44;;;;;;;6.63;3.70;;;15.50;65.40;;;;;;5053083;28;20168;-89
2021/05/19 10:14:14;;;;;;;7.33;5.00;;;15.60;64.70;;;;;;5053213;28;20667;-87
2021/05/19 10:16:45;;;;;;;6.97;4.70;;;15.30;62.50;;;;;;5035084;28;20192;-87
2021/05/19 10:19:17;;;;;;;4.77;4.27;;;15.00;65.30;;;;;;5035189;28;20222;-88
2021/05/19 10:21:43;;;;;;;7.20;4.40;;;15.50;64.40;;;;;;5053023;28;20338;-87
2021/05/19 10:24:11;;;;;;;4.47;3.87;;;15.70;64.20;;;;;;5034927;28;20222;-88
2021/05/19 10:27:02;;;;;;;5.03;3.43;;;15.50;63.60;;;;;;5034962;28;20222;-87
2021/05/19 10:29:45;;;;;;;5.68;2.83;;;15.60;62.90;;;;;;5052909;28;20169;-87
2021/05/19 10:32:23;;;;;;;3.95;3.22;;;15.70;63.10;;;;;;5053130;28;20179;-88
2021/05/19 10:34:54;;;;;;;6.05;3.33;;;15.90;62.20;;;;;;5052867;28;20171;-87
2021/05/19 10:37:29;;;;;;;5.63;3.88;;;16.00;62.80;;;;;;5035724;28;20183;-90
2021/05/19 10:40:27;;;;;;;3.65;3.35;;;15.90;62.90;;;;;;5053312;28;20578;-88
2021/05/19 10:43:00;;;;;;;4.72;3.75;;;15.60;62.70;;;;;;5034984;28;20186;-87
2021/05/19 10:45:26;;;;;;;3.83;3.00;;;15.90;64.10;;;;;;5034748;28;20664;-87
2021/05/19 10:47:52;;;;;;;7.15;3.10;;;16.30;62.20;;;;;;5034858;28;20175;-89
2021/05/19 10:50:28;;;;;;;5.05;2.90;;;16.50;60.30;;;;;;5052818;28;20252;-89
2021/05/19 10:59:01;;;;;;;3.90;3.47;;;16.10;60.00;;;;;;5055177;28;20163;-88
2021/05/19 11:01:40;;;;;;;3.45;3.15;;;16.50;60.60;;;;;;5056383;28;20187;-88
2021/05/19 11:04:20;;;;;;;5.50;3.60;;;17.10;59.50;;;;;;5038420;28;20172;-88
2021/05/19 11:07:03;;;;;;;7.55;3.97;;;17.10;54.90;;;;;;5056286;28;20283;-88
2021/05/19 11:09:41;;;;;;;4.78;3.03;;;16.00;58.70;;;;;;5056361;28;20160;-88
2021/05/19 11:12:24;;;;;;;5.38;3.67;;;15.50;60.60;;;;;;5056301;28;20148;-87
2021/05/19 11:17:56;;;;;;;4.75;4.00;;;15.90;62.00;;;;;;5056693;28;20157;-89
2021/05/19 11:20:15;;;;;;;3.05;2.60;;;16.00;59.80;;;;;;5055394;28;20663;-89
2021/05/19 11:22:40;;;;;;;5.10;1.92;;;15.70;58.40;;;;;;5038323;28;20191;-89
2021/05/19 11:25:07;;;;;;;6.00;2.75;;;16.40;61.40;;;;;;5056486;28;20585;-90
2021/05/19 11:27:34;;;;;;;3.55;2.30;;;16.70;60.50;;;;;;5039248;28;20195;-90
2021/05/19 11:30:03;;;;;;;5.28;2.90;;;16.70;61.90;;;;;;5056208;28;20535;-89
2021/05/19 11:32:30;;;;;;;2.85;2.25;;;16.40;58.00;;;;;;5038066;28;20207;-88
2021/05/19 11:35:19;;;;;;;2.75;1.95;;;16.40;58.10;;;;;;5037841;28;20179;-88
2021/05/19 11:37:56;;;;;;;3.90;2.05;;;16.50;57.50;;;;;;5037897;28;20176;-88
2021/05/19 11:40:22;;;;;;;5.50;2.67;;;17.20;59.90;;;;;;5037834;28;20555;-88
2021/05/19 11:42:56;;;;;;;2.85;2.08;;;17.30;54.70;;;;;;5037948;28;20180;-87
2021/05/19 11:45:26;;;;;;;2.45;1.73;;;17.50;56.60;;;;;;5055586;28;20192;-88
2021/05/19 11:47:52;;;;;;;3.00;1.60;;;17.70;52.30;;;;;;5037765;28;20176;-87
2021/05/19 11:50:21;;;;;;;2.17;1.40;;;17.30;54.70;;;;;;5037706;28;20662;-88
2021/05/19 11:53:09;;;;;;;1.40;1.30;;;17.30;54.50;;;;;;5037631;28;20187;-89
2021/05/19 11:55:45;;;;;;;2.67;1.40;;;17.20;53.10;;;;;;5037559;28;20698;-89
2021/05/19 11:58:27;;;;;;;4.50;1.48;;;17.30;53.80;;;;;;5037659;28;20710;-89
2021/05/19 12:00:58;;;;;;;2.90;1.30;;;17.60;55.00;;;;;;5038229;28;20172;-88
2021/05/19 12:03:25;;;;;;;3.50;1.33;;;17.70;52.60;;;;;;5055670;28;20278;-88
2021/05/19 12:05:55;;;;;;;3.72;1.55;;;17.20;57.20;;;;;;5037296;28;20691;-89
2021/05/19 12:08:35;;;;;;;5.32;1.55;;;17.70;53.50;;;;;;5037439;28;20179;-88
2021/05/19 12:11:05;;;;;;;1.58;1.27;;;17.10;53.10;;;;;;5036546;28;20314;-88
2021/05/19 12:13:34;;;;;;;2.72;1.45;;;17.50;50.60;;;;;;5037216;28;20172;-89
2021/05/19 12:16:00;;;;;;;2.22;1.20;;;17.40;52.80;;;;;;5037189;28;20579;-89
2021/05/19 12:18:25;;;;;;;2.45;1.25;;;17.50;52.10;;;;;;5055098;28;20176;-88
2021/05/19 12:20:51;;;;;;;2.78;1.38;;;17.80;55.40;;;;;;5037009;28;20176;-88
2021/05/19 12:23:17;;;;;;;2.20;1.52;;;17.80;54.00;;;;;;5037090;28;20180;-88
2021/05/19 12:25:44;;;;;;;4.38;1.70;;;18.30;52.60;;;;;;5036806;28;20294;-90
2021/05/19 12:28:19;;;;;;;2.95;1.38;;;18.00;54.40;;;;;;5037061;28;20176;-89
2021/05/19 12:31:00;;;;;;;3.38;1.50;;;17.90;51.70;;;;;;5054946;28;20238;-88
2021/05/19 12:33:41;;;;;;;9.13;3.08;;;17.50;52.30;;;;;;5054780;28;20148;-88
2021/05/19 12:36:07;;;;;;;9.85;2.63;;;18.30;52.40;;;;;;5036588;28;20211;-89
2021/05/19 12:38:57;;;;;;;3.17;1.73;;;18.90;54.00;;;;;;5036788;28;20206;-90
2021/05/19 12:41:45;;;;;;;11.32;3.92;;;19.20;50.10;;;;;;5036861;28;20222;-88
2021/05/19 12:44:19;;;;;;;6.22;3.22;;;18.60;51.70;;;;;;5054713;28;20178;-88
2021/05/19 12:47:02;;;;;;;9.70;3.47;;;18.30;54.80;;;;;;5036567;28;20246;-89
2021/05/19 12:49:28;;;;;;;5.70;2.40;;;18.70;55.80;;;;;;5036654;28;20243;-90
2021/05/19 12:52:06;;;;;;;3.30;2.30;;;18.60;54.70;;;;;;5036636;28;20267;-90
2021/05/19 12:54:34;;;;;;;3.70;1.77;;;18.40;52.00;;;;;;5036612;28;20222;-90
2021/05/19 12:57:02;;;;;;;3.33;1.90;;;18.30;55.40;;;;;;5036318;28;20196;-89
2021/05/19 12:59:28;;;;;;;2.58;2.00;;;18.30;55.30;;;;;;5036507;28;20187;-89